8PN4 weather

Public forecast

Using degrees Fahrenheit for public forecast. Weather courtesy of forecast.io.

Closest aviation weather report (METAR) to Philipsburg Area Hospital Heliport

Closest report is Clearfield Lawrence Airport, 12.7 nm (23.5 km) NW. Retrieved 2020/08/15 12:54 UTC (39 minutes ago):

KFIG 151254Z AUTO 07006KT 10SM CLR 20/16 A3006 RMK AO2 SLP170 T02000156

Closest aviation forecast (TAF) to Philipsburg Area Hospital Heliport

Closest forecast is University Park Airport, 16.6 nm (30.8 km) ESE. Retrieved 2020/08/15 12:30 UTC (1 hour ago):

TAF KUNV 151129Z 1512/1612 00000KT P6SM BKN200 FM151500 16004KT P6SM BKN100 FM151800 14005KT P6SM BKN040